sensor_id;sensor_type;location;lat;lon;timestamp;P1;durP1;ratioP1;P2;durP2;ratioP2
26562;SDS011;14217;50.986;5.826;2023-08-20T00:02:23;2.80;;;1.95;;
26562;SDS011;14217;50.986;5.826;2023-08-20T00:07:26;2.65;;;2.10;;
26562;SDS011;14217;50.986;5.826;2023-08-20T00:12:29;3.95;;;2.35;;
26562;SDS011;14217;50.986;5.826;2023-08-20T00:17:34;2.67;;;1.83;;
26562;SDS011;14217;50.986;5.826;2023-08-20T00:22:41;2.45;;;1.70;;
26562;SDS011;14217;50.986;5.826;2023-08-20T00:27:46;3.45;;;2.30;;
26562;SDS011;14217;50.986;5.826;2023-08-20T00:32:49;1.85;;;1.73;;
26562;SDS011;14217;50.986;5.826;2023-08-20T00:37:52;1.83;;;1.60;;
26562;SDS011;14217;50.986;5.826;2023-08-20T00:42:53;1.70;;;1.60;;
26562;SDS011;14217;50.986;5.826;2023-08-20T00:47:55;2.00;;;1.80;;
26562;SDS011;14217;50.986;5.826;2023-08-20T00:52:58;2.22;;;1.90;;
26562;SDS011;14217;50.986;5.826;2023-08-20T00:58:00;2.70;;;2.05;;
26562;SDS011;14217;50.986;5.826;2023-08-20T01:03:02;2.42;;;1.52;;
26562;SDS011;14217;50.986;5.826;2023-08-20T01:08:08;2.33;;;1.80;;
26562;SDS011;14217;50.986;5.826;2023-08-20T01:13:21;2.55;;;1.88;;
26562;SDS011;14217;50.986;5.826;2023-08-20T01:18:23;2.65;;;1.75;;
26562;SDS011;14217;50.986;5.826;2023-08-20T01:23:36;9.65;;;2.35;;
26562;SDS011;14217;50.986;5.826;2023-08-20T01:28:57;2.13;;;1.80;;
26562;SDS011;14217;50.986;5.826;2023-08-20T01:34:00;3.50;;;2.17;;
26562;SDS011;14217;50.986;5.826;2023-08-20T01:39:03;2.38;;;2.05;;
26562;SDS011;14217;50.986;5.826;2023-08-20T01:44:06;3.17;;;2.50;;
26562;SDS011;14217;50.986;5.826;2023-08-20T01:49:09;2.60;;;2.05;;
26562;SDS011;14217;50.986;5.826;2023-08-20T01:54:11;2.90;;;2.47;;
26562;SDS011;14217;50.986;5.826;2023-08-20T01:59:13;3.38;;;2.33;;
26562;SDS011;14217;50.986;5.826;2023-08-20T02:04:15;3.15;;;2.53;;
26562;SDS011;14217;50.986;5.826;2023-08-20T02:09:17;1.75;;;1.65;;
26562;SDS011;14217;50.986;5.826;2023-08-20T02:14:21;4.75;;;2.95;;
26562;SDS011;14217;50.986;5.826;2023-08-20T02:19:23;3.45;;;2.55;;
26562;SDS011;14217;50.986;5.826;2023-08-20T02:24:25;2.58;;;2.35;;
26562;SDS011;14217;50.986;5.826;2023-08-20T02:29:27;2.88;;;2.38;;
26562;SDS011;14217;50.986;5.826;2023-08-20T02:34:29;2.67;;;2.42;;
26562;SDS011;14217;50.986;5.826;2023-08-20T02:39:31;1.92;;;1.83;;
26562;SDS011;14217;50.986;5.826;2023-08-20T02:44:34;5.40;;;2.67;;
26562;SDS011;14217;50.986;5.826;2023-08-20T02:49:35;3.40;;;2.80;;
26562;SDS011;14217;50.986;5.826;2023-08-20T02:54:37;2.65;;;2.38;;
26562;SDS011;14217;50.986;5.826;2023-08-20T02:59:40;2.15;;;1.95;;
26562;SDS011;14217;50.986;5.826;2023-08-20T03:04:42;2.40;;;2.28;;
26562;SDS011;14217;50.986;5.826;2023-08-20T03:09:44;4.15;;;2.83;;
26562;SDS011;14217;50.986;5.826;2023-08-20T03:14:46;2.58;;;2.38;;
26562;SDS011;14217;50.986;5.826;2023-08-20T03:19:54;2.55;;;2.30;;
26562;SDS011;14217;50.986;5.826;2023-08-20T03:24:58;4.25;;;2.58;;
26562;SDS011;14217;50.986;5.826;2023-08-20T03:30:00;6.18;;;2.50;;
26562;SDS011;14217;50.986;5.826;2023-08-20T03:35:03;4.43;;;2.75;;
26562;SDS011;14217;50.986;5.826;2023-08-20T03:40:05;4.53;;;3.28;;
26562;SDS011;14217;50.986;5.826;2023-08-20T03:45:07;4.20;;;2.50;;
26562;SDS011;14217;50.986;5.826;2023-08-20T03:50:10;2.65;;;2.00;;
26562;SDS011;14217;50.986;5.826;2023-08-20T03:55:12;3.83;;;2.40;;
26562;SDS011;14217;50.986;5.826;2023-08-20T04:00:14;3.97;;;2.63;;
26562;SDS011;14217;50.986;5.826;2023-08-20T04:05:16;3.58;;;2.08;;
26562;SDS011;14217;50.986;5.826;2023-08-20T04:10:18;2.47;;;1.85;;
26562;SDS011;14217;50.986;5.826;2023-08-20T04:15:21;2.63;;;2.40;;
26562;SDS011;14217;50.986;5.826;2023-08-20T04:20:23;3.00;;;2.53;;
26562;SDS011;14217;50.986;5.826;2023-08-20T04:25:25;4.40;;;2.92;;
26562;SDS011;14217;50.986;5.826;2023-08-20T04:30:28;2.47;;;2.15;;
26562;SDS011;14217;50.986;5.826;2023-08-20T04:35:30;2.55;;;2.22;;
26562;SDS011;14217;50.986;5.826;2023-08-20T04:40:32;3.20;;;2.05;;
26562;SDS011;14217;50.986;5.826;2023-08-20T04:45:34;3.22;;;2.47;;
26562;SDS011;14217;50.986;5.826;2023-08-20T04:50:36;3.00;;;2.08;;
26562;SDS011;14217;50.986;5.826;2023-08-20T04:55:39;3.15;;;2.85;;
26562;SDS011;14217;50.986;5.826;2023-08-20T05:00:41;3.08;;;2.08;;
26562;SDS011;14217;50.986;5.826;2023-08-20T05:05:48;3.70;;;2.15;;
26562;SDS011;14217;50.986;5.826;2023-08-20T05:10:50;5.68;;;3.08;;
26562;SDS011;14217;50.986;5.826;2023-08-20T05:15:52;7.75;;;2.63;;
26562;SDS011;14217;50.986;5.826;2023-08-20T05:20:55;3.40;;;1.95;;
26562;SDS011;14217;50.986;5.826;2023-08-20T05:25:57;2.30;;;2.10;;
26562;SDS011;14217;50.986;5.826;2023-08-20T05:30:59;3.92;;;2.45;;
26562;SDS011;14217;50.986;5.826;2023-08-20T05:36:01;4.22;;;2.08;;
26562;SDS011;14217;50.986;5.826;2023-08-20T05:41:03;3.28;;;2.13;;
26562;SDS011;14217;50.986;5.826;2023-08-20T05:46:05;2.28;;;1.73;;
26562;SDS011;14217;50.986;5.826;2023-08-20T05:51:07;4.20;;;2.22;;
26562;SDS011;14217;50.986;5.826;2023-08-20T05:56:09;1.98;;;1.63;;
26562;SDS011;14217;50.986;5.826;2023-08-20T06:01:11;2.53;;;1.55;;
26562;SDS011;14217;50.986;5.826;2023-08-20T06:06:13;4.40;;;1.67;;
26562;SDS011;14217;50.986;5.826;2023-08-20T06:11:15;3.10;;;1.73;;
26562;SDS011;14217;50.986;5.826;2023-08-20T06:16:17;2.05;;;1.77;;
26562;SDS011;14217;50.986;5.826;2023-08-20T06:21:19;1.75;;;1.20;;
26562;SDS011;14217;50.986;5.826;2023-08-20T06:26:22;5.68;;;1.48;;
26562;SDS011;14217;50.986;5.826;2023-08-20T06:31:24;1.95;;;1.58;;
26562;SDS011;14217;50.986;5.826;2023-08-20T06:36:26;2.67;;;1.35;;
26562;SDS011;14217;50.986;5.826;2023-08-20T06:41:28;1.67;;;1.50;;
26562;SDS011;14217;50.986;5.826;2023-08-20T06:46:30;1.55;;;1.08;;
26562;SDS011;14217;50.986;5.826;2023-08-20T06:51:32;2.75;;;1.83;;
26562;SDS011;14217;50.986;5.826;2023-08-20T06:56:34;8.55;;;1.80;;
26562;SDS011;14217;50.986;5.826;2023-08-20T07:01:36;4.25;;;1.27;;
26562;SDS011;14217;50.986;5.826;2023-08-20T07:06:38;4.32;;;1.20;;
26562;SDS011;14217;50.986;5.826;2023-08-20T07:11:40;1.92;;;0.90;;
26562;SDS011;14217;50.986;5.826;2023-08-20T07:16:42;1.90;;;0.90;;
26562;SDS011;14217;50.986;5.826;2023-08-20T07:21:44;1.73;;;1.30;;
26562;SDS011;14217;50.986;5.826;2023-08-20T07:26:46;1.73;;;1.50;;
26562;SDS011;14217;50.986;5.826;2023-08-20T07:31:48;2.15;;;0.93;;
26562;SDS011;14217;50.986;5.826;2023-08-20T07:36:50;4.35;;;1.38;;
26562;SDS011;14217;50.986;5.826;2023-08-20T07:41:52;1.70;;;1.20;;
26562;SDS011;14217;50.986;5.826;2023-08-20T07:46:54;5.18;;;1.23;;
26562;SDS011;14217;50.986;5.826;2023-08-20T07:51:56;2.40;;;1.35;;
26562;SDS011;14217;50.986;5.826;2023-08-20T07:56:58;2.47;;;1.10;;
26562;SDS011;14217;50.986;5.826;2023-08-20T08:02:00;2.05;;;1.05;;
26562;SDS011;14217;50.986;5.826;2023-08-20T08:07:03;2.40;;;1.25;;
26562;SDS011;14217;50.986;5.826;2023-08-20T08:12:05;3.85;;;1.60;;
26562;SDS011;14217;50.986;5.826;2023-08-20T08:17:07;10.02;;;1.75;;
26562;SDS011;14217;50.986;5.826;2023-08-20T08:22:09;1.35;;;1.00;;
26562;SDS011;14217;50.986;5.826;2023-08-20T08:27:12;3.28;;;1.60;;
26562;SDS011;14217;50.986;5.826;2023-08-20T08:32:14;2.42;;;1.40;;
26562;SDS011;14217;50.986;5.826;2023-08-20T08:37:16;3.33;;;1.75;;
26562;SDS011;14217;50.986;5.826;2023-08-20T08:42:18;5.38;;;1.92;;
26562;SDS011;14217;50.986;5.826;2023-08-20T08:47:24;5.07;;;1.88;;
26562;SDS011;14217;50.986;5.826;2023-08-20T08:52:27;4.13;;;1.73;;
26562;SDS011;14217;50.986;5.826;2023-08-20T08:57:30;1.38;;;1.27;;
26562;SDS011;14217;50.986;5.826;2023-08-20T09:02:33;3.83;;;1.30;;
26562;SDS011;14217;50.986;5.826;2023-08-20T09:07:35;2.58;;;1.65;;
26562;SDS011;14217;50.986;5.826;2023-08-20T09:12:38;2.25;;;1.52;;
26562;SDS011;14217;50.986;5.826;2023-08-20T09:17:41;4.97;;;2.00;;
26562;SDS011;14217;50.986;5.826;2023-08-20T09:22:48;2.13;;;1.67;;
26562;SDS011;14217;50.986;5.826;2023-08-20T09:27:51;4.80;;;1.95;;
26562;SDS011;14217;50.986;5.826;2023-08-20T09:33:02;3.17;;;1.50;;
26562;SDS011;14217;50.986;5.826;2023-08-20T09:38:06;2.17;;;1.98;;
26562;SDS011;14217;50.986;5.826;2023-08-20T09:43:08;1.98;;;1.30;;
26562;SDS011;14217;50.986;5.826;2023-08-20T09:48:12;3.63;;;2.05;;
26562;SDS011;14217;50.986;5.826;2023-08-20T09:53:25;2.08;;;1.30;;
26562;SDS011;14217;50.986;5.826;2023-08-20T09:58:34;2.85;;;2.17;;
26562;SDS011;14217;50.986;5.826;2023-08-20T10:03:38;2.35;;;1.70;;
26562;SDS011;14217;50.986;5.826;2023-08-20T10:08:44;2.67;;;1.73;;
26562;SDS011;14217;50.986;5.826;2023-08-20T10:13:48;2.22;;;1.67;;
26562;SDS011;14217;50.986;5.826;2023-08-20T10:18:50;7.05;;;1.75;;
26562;SDS011;14217;50.986;5.826;2023-08-20T10:23:52;2.65;;;2.05;;
26562;SDS011;14217;50.986;5.826;2023-08-20T10:34:38;4.75;;;2.25;;
26562;SDS011;14217;50.986;5.826;2023-08-20T10:39:41;2.25;;;1.80;;
26562;SDS011;14217;50.986;5.826;2023-08-20T10:45:07;2.25;;;1.85;;
26562;SDS011;14217;50.986;5.826;2023-08-20T10:50:11;3.88;;;1.75;;
26562;SDS011;14217;50.986;5.826;2023-08-20T10:55:21;3.25;;;2.13;;
26562;SDS011;14217;50.986;5.826;2023-08-20T11:00:25;7.57;;;1.45;;
26562;SDS011;14217;50.986;5.826;2023-08-20T11:05:27;3.72;;;2.28;;
26562;SDS011;14217;50.986;5.826;2023-08-20T11:10:30;3.88;;;2.00;;
26562;SDS011;14217;50.986;5.826;2023-08-20T11:15:33;3.47;;;1.92;;
26562;SDS011;14217;50.986;5.826;2023-08-20T11:20:36;2.45;;;1.88;;
26562;SDS011;14217;50.986;5.826;2023-08-20T11:25:41;2.70;;;2.30;;
26562;SDS011;14217;50.986;5.826;2023-08-20T11:30:45;3.50;;;3.03;;
26562;SDS011;14217;50.986;5.826;2023-08-20T11:35:48;4.18;;;2.38;;
26562;SDS011;14217;50.986;5.826;2023-08-20T11:40:50;2.75;;;1.73;;
26562;SDS011;14217;50.986;5.826;2023-08-20T11:45:53;7.00;;;1.90;;
26562;SDS011;14217;50.986;5.826;2023-08-20T11:50:56;4.03;;;1.92;;
26562;SDS011;14217;50.986;5.826;2023-08-20T11:55:58;6.20;;;2.40;;
26562;SDS011;14217;50.986;5.826;2023-08-20T12:01:01;1.90;;;1.70;;
26562;SDS011;14217;50.986;5.826;2023-08-20T12:06:19;3.50;;;1.92;;
26562;SDS011;14217;50.986;5.826;2023-08-20T12:11:25;3.13;;;1.92;;
26562;SDS011;14217;50.986;5.826;2023-08-20T12:16:30;2.47;;;2.28;;
26562;SDS011;14217;50.986;5.826;2023-08-20T12:21:32;3.08;;;1.63;;
26562;SDS011;14217;50.986;5.826;2023-08-20T12:26:34;3.08;;;1.50;;
26562;SDS011;14217;50.986;5.826;2023-08-20T12:31:37;3.25;;;1.42;;
26562;SDS011;14217;50.986;5.826;2023-08-20T12:36:39;2.83;;;1.25;;
26562;SDS011;14217;50.986;5.826;2023-08-20T12:41:41;2.15;;;1.77;;
26562;SDS011;14217;50.986;5.826;2023-08-20T12:46:44;1.38;;;1.17;;
26562;SDS011;14217;50.986;5.826;2023-08-20T12:51:46;1.70;;;1.35;;
26562;SDS011;14217;50.986;5.826;2023-08-20T12:56:48;3.30;;;1.67;;
26562;SDS011;14217;50.986;5.826;2023-08-20T13:01:50;2.15;;;1.35;;
26562;SDS011;14217;50.986;5.826;2023-08-20T13:06:52;2.13;;;1.15;;
26562;SDS011;14217;50.986;5.826;2023-08-20T13:11:56;1.65;;;1.15;;
26562;SDS011;14217;50.986;5.826;2023-08-20T13:16:59;2.83;;;1.55;;
26562;SDS011;14217;50.986;5.826;2023-08-20T13:22:01;1.55;;;1.45;;
26562;SDS011;14217;50.986;5.826;2023-08-20T13:27:03;1.95;;;1.42;;
26562;SDS011;14217;50.986;5.826;2023-08-20T13:32:05;2.85;;;1.48;;
26562;SDS011;14217;50.986;5.826;2023-08-20T13:37:08;2.80;;;1.02;;
26562;SDS011;14217;50.986;5.826;2023-08-20T13:42:10;4.47;;;2.03;;
26562;SDS011;14217;50.986;5.826;2023-08-20T13:47:11;2.10;;;1.38;;
26562;SDS011;14217;50.986;5.826;2023-08-20T13:52:13;4.15;;;1.50;;
26562;SDS011;14217;50.986;5.826;2023-08-20T13:57:16;2.38;;;1.38;;
26562;SDS011;14217;50.986;5.826;2023-08-20T14:02:18;3.42;;;1.33;;
26562;SDS011;14217;50.986;5.826;2023-08-20T14:07:19;1.80;;;1.25;;
26562;SDS011;14217;50.986;5.826;2023-08-20T14:12:21;3.22;;;1.40;;
26562;SDS011;14217;50.986;5.826;2023-08-20T14:17:23;0.90;;;0.90;;
26562;SDS011;14217;50.986;5.826;2023-08-20T14:22:26;2.95;;;1.27;;
26562;SDS011;14217;50.986;5.826;2023-08-20T14:27:28;4.07;;;1.30;;
26562;SDS011;14217;50.986;5.826;2023-08-20T14:32:30;1.33;;;1.20;;
26562;SDS011;14217;50.986;5.826;2023-08-20T14:37:32;1.38;;;1.20;;
26562;SDS011;14217;50.986;5.826;2023-08-20T14:42:34;4.70;;;1.35;;
26562;SDS011;14217;50.986;5.826;2023-08-20T14:47:36;2.58;;;1.10;;
26562;SDS011;14217;50.986;5.826;2023-08-20T14:52:38;1.48;;;1.20;;
26562;SDS011;14217;50.986;5.826;2023-08-20T14:57:41;2.22;;;1.00;;
26562;SDS011;14217;50.986;5.826;2023-08-20T15:02:52;2.35;;;1.30;;
26562;SDS011;14217;50.986;5.826;2023-08-20T15:07:54;2.90;;;2.42;;
26562;SDS011;14217;50.986;5.826;2023-08-20T15:12:56;8.40;;;5.43;;
26562;SDS011;14217;50.986;5.826;2023-08-20T15:17:58;8.52;;;4.43;;
26562;SDS011;14217;50.986;5.826;2023-08-20T15:23:00;4.25;;;2.90;;
26562;SDS011;14217;50.986;5.826;2023-08-20T15:28:02;3.83;;;2.30;;
26562;SDS011;14217;50.986;5.826;2023-08-20T15:33:05;2.55;;;2.17;;
26562;SDS011;14217;50.986;5.826;2023-08-20T15:38:07;4.28;;;2.72;;
26562;SDS011;14217;50.986;5.826;2023-08-20T15:43:09;3.03;;;1.85;;
26562;SDS011;14217;50.986;5.826;2023-08-20T15:48:11;3.50;;;1.95;;
26562;SDS011;14217;50.986;5.826;2023-08-20T15:53:15;2.63;;;1.60;;
26562;SDS011;14217;50.986;5.826;2023-08-20T15:58:17;2.05;;;1.52;;
26562;SDS011;14217;50.986;5.826;2023-08-20T16:03:21;2.45;;;1.40;;
26562;SDS011;14217;50.986;5.826;2023-08-20T16:08:23;3.15;;;1.70;;
26562;SDS011;14217;50.986;5.826;2023-08-20T16:13:25;3.17;;;1.38;;
26562;SDS011;14217;50.986;5.826;2023-08-20T16:18:27;2.08;;;1.20;;
26562;SDS011;14217;50.986;5.826;2023-08-20T16:23:29;6.57;;;1.13;;
26562;SDS011;14217;50.986;5.826;2023-08-20T16:28:31;4.45;;;1.30;;
26562;SDS011;14217;50.986;5.826;2023-08-20T16:33:33;3.05;;;1.60;;
26562;SDS011;14217;50.986;5.826;2023-08-20T16:38:35;2.95;;;1.25;;
26562;SDS011;14217;50.986;5.826;2023-08-20T16:43:39;2.90;;;1.30;;
26562;SDS011;14217;50.986;5.826;2023-08-20T16:48:41;4.30;;;1.52;;
26562;SDS011;14217;50.986;5.826;2023-08-20T16:53:43;2.42;;;1.17;;
26562;SDS011;14217;50.986;5.826;2023-08-20T16:58:45;4.30;;;1.00;;
26562;SDS011;14217;50.986;5.826;2023-08-20T17:03:47;2.63;;;1.13;;
26562;SDS011;14217;50.986;5.826;2023-08-20T17:08:50;3.35;;;1.00;;
26562;SDS011;14217;50.986;5.826;2023-08-20T17:13:52;2.53;;;1.13;;
26562;SDS011;14217;50.986;5.826;2023-08-20T17:18:55;2.40;;;1.30;;
26562;SDS011;14217;50.986;5.826;2023-08-20T17:23:57;2.80;;;1.02;;
26562;SDS011;14217;50.986;5.826;2023-08-20T17:29:02;2.85;;;1.45;;
26562;SDS011;14217;50.986;5.826;2023-08-20T17:34:04;2.22;;;0.93;;
26562;SDS011;14217;50.986;5.826;2023-08-20T17:39:09;2.85;;;1.52;;
26562;SDS011;14217;50.986;5.826;2023-08-20T17:44:12;1.40;;;1.00;;
26562;SDS011;14217;50.986;5.826;2023-08-20T17:49:14;1.70;;;0.80;;
26562;SDS011;14217;50.986;5.826;2023-08-20T17:54:18;1.35;;;0.93;;
26562;SDS011;14217;50.986;5.826;2023-08-20T17:59:20;3.72;;;1.08;;
26562;SDS011;14217;50.986;5.826;2023-08-20T18:04:22;2.60;;;1.20;;
26562;SDS011;14217;50.986;5.826;2023-08-20T18:09:24;2.65;;;0.90;;
26562;SDS011;14217;50.986;5.826;2023-08-20T18:14:26;1.23;;;0.80;;
26562;SDS011;14217;50.986;5.826;2023-08-20T18:19:29;2.15;;;0.70;;
26562;SDS011;14217;50.986;5.826;2023-08-20T18:24:31;2.45;;;1.17;;
26562;SDS011;14217;50.986;5.826;2023-08-20T18:29:33;2.78;;;1.30;;
26562;SDS011;14217;50.986;5.826;2023-08-20T18:34:35;5.25;;;1.13;;
26562;SDS011;14217;50.986;5.826;2023-08-20T18:39:37;7.70;;;1.02;;
26562;SDS011;14217;50.986;5.826;2023-08-20T18:44:39;3.00;;;0.90;;
26562;SDS011;14217;50.986;5.826;2023-08-20T18:49:43;3.00;;;1.23;;
26562;SDS011;14217;50.986;5.826;2023-08-20T18:54:44;0.90;;;0.80;;
26562;SDS011;14217;50.986;5.826;2023-08-20T18:59:46;2.92;;;1.20;;
26562;SDS011;14217;50.986;5.826;2023-08-20T19:04:48;1.27;;;0.88;;
26562;SDS011;14217;50.986;5.826;2023-08-20T19:09:51;8.93;;;1.08;;
26562;SDS011;14217;50.986;5.826;2023-08-20T19:14:54;1.50;;;0.80;;
26562;SDS011;14217;50.986;5.826;2023-08-20T19:19:56;2.53;;;0.80;;
26562;SDS011;14217;50.986;5.826;2023-08-20T19:24:58;1.60;;;0.88;;
26562;SDS011;14217;50.986;5.826;2023-08-20T19:30:00;0.70;;;0.70;;
26562;SDS011;14217;50.986;5.826;2023-08-20T19:35:05;3.45;;;0.93;;
26562;SDS011;14217;50.986;5.826;2023-08-20T19:40:07;6.63;;;0.77;;
26562;SDS011;14217;50.986;5.826;2023-08-20T19:45:10;2.40;;;0.93;;
26562;SDS011;14217;50.986;5.826;2023-08-20T19:50:12;0.95;;;0.70;;
26562;SDS011;14217;50.986;5.826;2023-08-20T19:55:15;1.20;;;0.65;;
26562;SDS011;14217;50.986;5.826;2023-08-20T20:00:17;1.85;;;0.85;;
26562;SDS011;14217;50.986;5.826;2023-08-20T20:05:20;2.17;;;0.93;;
26562;SDS011;14217;50.986;5.826;2023-08-20T20:10:22;0.77;;;0.55;;
26562;SDS011;14217;50.986;5.826;2023-08-20T20:15:24;1.55;;;0.68;;
26562;SDS011;14217;50.986;5.826;2023-08-20T20:20:26;2.05;;;0.82;;
26562;SDS011;14217;50.986;5.826;2023-08-20T20:25:28;1.80;;;0.95;;
26562;SDS011;14217;50.986;5.826;2023-08-20T20:30:30;1.60;;;0.98;;
26562;SDS011;14217;50.986;5.826;2023-08-20T20:35:32;2.55;;;1.52;;
26562;SDS011;14217;50.986;5.826;2023-08-20T20:40:34;2.45;;;0.98;;
26562;SDS011;14217;50.986;5.826;2023-08-20T20:45:42;2.40;;;1.23;;
26562;SDS011;14217;50.986;5.826;2023-08-20T20:50:45;1.85;;;1.17;;
26562;SDS011;14217;50.986;5.826;2023-08-20T20:55:47;1.05;;;0.88;;
26562;SDS011;14217;50.986;5.826;2023-08-20T21:00:49;1.80;;;1.00;;
26562;SDS011;14217;50.986;5.826;2023-08-20T21:05:52;1.08;;;0.60;;
26562;SDS011;14217;50.986;5.826;2023-08-20T21:10:54;1.83;;;0.95;;
26562;SDS011;14217;50.986;5.826;2023-08-20T21:15:56;1.48;;;1.00;;
26562;SDS011;14217;50.986;5.826;2023-08-20T21:20:59;2.45;;;0.60;;
26562;SDS011;14217;50.986;5.826;2023-08-20T21:26:01;1.63;;;0.80;;
26562;SDS011;14217;50.986;5.826;2023-08-20T21:31:03;6.28;;;0.70;;
26562;SDS011;14217;50.986;5.826;2023-08-20T21:36:05;1.63;;;0.80;;
26562;SDS011;14217;50.986;5.826;2023-08-20T21:41:07;3.55;;;0.95;;
26562;SDS011;14217;50.986;5.826;2023-08-20T21:46:09;1.50;;;0.82;;
26562;SDS011;14217;50.986;5.826;2023-08-20T21:51:12;1.48;;;0.82;;
26562;SDS011;14217;50.986;5.826;2023-08-20T21:56:14;7.18;;;1.15;;
26562;SDS011;14217;50.986;5.826;2023-08-20T22:01:16;2.08;;;0.75;;
26562;SDS011;14217;50.986;5.826;2023-08-20T22:06:19;1.27;;;1.00;;
26562;SDS011;14217;50.986;5.826;2023-08-20T22:11:20;1.67;;;0.80;;
26562;SDS011;14217;50.986;5.826;2023-08-20T22:16:22;6.25;;;1.20;;
26562;SDS011;14217;50.986;5.826;2023-08-20T22:21:25;2.72;;;0.82;;
26562;SDS011;14217;50.986;5.826;2023-08-20T22:26:27;2.25;;;0.90;;
26562;SDS011;14217;50.986;5.826;2023-08-20T22:31:29;1.52;;;0.50;;
26562;SDS011;14217;50.986;5.826;2023-08-20T22:36:31;1.23;;;0.70;;
26562;SDS011;14217;50.986;5.826;2023-08-20T22:41:33;2.92;;;1.17;;
26562;SDS011;14217;50.986;5.826;2023-08-20T22:46:35;3.00;;;0.80;;
26562;SDS011;14217;50.986;5.826;2023-08-20T22:51:37;1.38;;;0.55;;
26562;SDS011;14217;50.986;5.826;2023-08-20T22:56:39;1.80;;;0.68;;
26562;SDS011;14217;50.986;5.826;2023-08-20T23:01:41;1.67;;;0.77;;
26562;SDS011;14217;50.986;5.826;2023-08-20T23:06:43;1.98;;;0.60;;
26562;SDS011;14217;50.986;5.826;2023-08-20T23:11:45;0.70;;;0.40;;
26562;SDS011;14217;50.986;5.826;2023-08-20T23:16:47;2.72;;;0.82;;
26562;SDS011;14217;50.986;5.826;2023-08-20T23:21:50;1.27;;;0.93;;
26562;SDS011;14217;50.986;5.826;2023-08-20T23:26:52;1.55;;;0.60;;
26562;SDS011;14217;50.986;5.826;2023-08-20T23:31:54;2.97;;;0.80;;
26562;SDS011;14217;50.986;5.826;2023-08-20T23:36:56;1.48;;;0.80;;
26562;SDS011;14217;50.986;5.826;2023-08-20T23:41:57;1.27;;;0.68;;
26562;SDS011;14217;50.986;5.826;2023-08-20T23:47:01;1.42;;;0.73;;
26562;SDS011;14217;50.986;5.826;2023-08-20T23:52:04;1.85;;;0.40;;
26562;SDS011;14217;50.986;5.826;2023-08-20T23:57:06;1.63;;;0.80;;
